Time;durP1;ratioP1;P1;durP2;ratioP2;P2;SDS_P1;SDS_P2;PMS_P1;PMS_P2;Temp;Humidity;BMP_temperature;BMP_pressure;BME280_temperature;BME280_humidity;BME280_pressure;Samples;Min_cycle;Max_cycle;Signal;HPM_P1;HPM_P2
2022/07/20 00:02:06;;;;;;;11.00;3.90;;;;;;;22.37;48.55;100602.63;5114084;28;20476;-71
2022/07/20 00:04:34;;;;;;;8.85;3.67;;;;;;;22.32;47.62;100605.81;5113966;28;20047;-71
2022/07/20 00:07:03;;;;;;;10.13;3.58;;;;;;;22.33;48.02;100606.69;5113126;28;20038;-71
2022/07/20 00:12:19;;;;;;;9.73;3.60;;;;;;;22.30;47.84;100601.56;5111745;28;20043;-71
2022/07/20 00:14:47;;;;;;;9.73;3.53;;;;;;;22.35;47.17;100596.50;5075128;28;20040;-71
2022/07/20 00:17:15;;;;;;;10.77;3.40;;;;;;;22.43;46.16;100596.56;5093436;28;20036;-71
2022/07/20 00:19:44;;;;;;;9.48;3.22;;;;;;;22.48;45.82;100595.03;5092748;28;20457;-71
2022/07/20 00:22:12;;;;;;;8.90;3.47;;;;;;;22.38;46.94;100598.88;5075487;28;20048;-71
2022/07/20 00:24:42;;;;;;;9.85;3.70;;;;;;;22.30;47.82;100601.56;5093147;28;20044;-71
2022/07/20 00:27:10;;;;;;;11.20;3.42;;;;;;;22.20;47.19;100607.97;5093372;28;20066;-71
2022/07/20 00:29:38;;;;;;;11.55;3.17;;;;;;;22.14;47.10;100605.88;5093312;28;20032;-71
2022/07/20 00:32:07;;;;;;;10.30;3.30;;;;;;;22.17;47.37;100608.25;5093093;28;20038;-71
2022/07/20 00:34:35;;;;;;;8.05;3.30;;;;;;;22.17;47.83;100597.38;5093496;28;20040;-71
2022/07/20 00:37:03;;;;;;;9.07;3.63;;;;;;;22.13;47.89;100604.16;5092975;28;20535;-71
2022/07/20 00:39:31;;;;;;;8.70;3.42;;;;;;;22.09;48.53;100604.63;5092992;28;20039;-71
2022/07/20 00:42:01;;;;;;;13.55;3.38;;;;;;;22.00;47.88;100603.66;5092999;28;20036;-75
2022/07/20 00:44:29;;;;;;;11.32;3.45;;;;;;;21.93;48.51;100606.19;5093395;28;20036;-75
2022/07/20 00:46:57;;;;;;;12.27;3.60;;;;;;;21.90;48.41;100605.63;5092761;28;20104;-76
2022/07/20 00:49:25;;;;;;;12.25;3.33;;;;;;;21.88;48.52;100602.22;5093141;28;20457;-76
2022/07/20 00:51:53;;;;;;;12.80;3.80;;;;;;;21.82;49.08;100601.00;5092699;28;20470;-76
2022/07/20 00:54:22;;;;;;;7.47;3.13;;;;;;;21.71;49.37;100602.09;5093142;28;20040;-76
2022/07/20 00:56:51;;;;;;;11.05;3.97;;;;;;;21.71;49.57;100602.09;5092773;28;20051;-75
2022/07/20 00:59:20;;;;;;;12.20;3.20;;;;;;;21.75;49.71;100607.19;5092857;28;20047;-78
2022/07/20 01:01:51;;;;;;;6.93;3.38;;;;;;;21.78;49.79;100613.16;5092758;28;20044;-77
2022/07/20 01:04:19;;;;;;;8.85;3.40;;;;;;;21.64;50.40;100614.56;5093127;28;20040;-79
2022/07/20 01:06:48;;;;;;;8.93;3.38;;;;;;;21.55;50.74;100612.78;5093102;28;20036;-79
2022/07/20 01:09:16;;;;;;;9.23;3.50;;;;;;;21.49;51.09;100613.38;5092884;28;20044;-79
2022/07/20 01:11:45;;;;;;;10.07;3.30;;;;;;;21.39;50.79;100608.03;5092729;28;20028;-76
2022/07/20 01:14:14;;;;;;;8.13;3.25;;;;;;;21.34;52.04;100609.50;5092800;28;20040;-76
2022/07/20 01:16:43;;;;;;;7.25;3.38;;;;;;;21.33;51.97;100607.81;5092729;28;20032;-76
2022/07/20 01:19:11;;;;;;;10.35;3.53;;;;;;;21.28;50.82;100600.09;5094560;28;20036;-76
2022/07/20 01:21:41;;;;;;;8.35;3.72;;;;;;;21.30;51.59;100603.50;5096435;28;20074;-76
2022/07/20 01:24:11;;;;;;;11.32;3.45;;;;;;;21.33;52.19;100607.81;5096430;28;20087;-77
2022/07/20 01:26:42;;;;;;;11.35;3.50;;;;;;;21.29;52.14;100611.81;5096416;28;20044;-76
2022/07/20 01:29:11;;;;;;;11.88;3.58;;;;;;;21.36;51.39;100612.91;5096318;28;20070;-77
2022/07/20 01:31:39;;;;;;;11.32;3.20;;;;;;;21.46;50.91;100618.28;5096799;28;20042;-76
2022/07/20 01:34:08;;;;;;;9.27;3.22;;;;;;;21.55;50.12;100612.78;5078096;28;20044;-76
2022/07/20 01:36:36;;;;;;;6.43;3.03;;;;;;;21.47;50.39;100609.97;5096336;28;20101;-73
2022/07/20 01:39:06;;;;;;;7.88;3.50;;;;;;;21.31;51.30;100609.78;5096014;28;20089;-73
2022/07/20 01:41:35;;;;;;;12.18;3.55;;;;;;;21.35;51.78;100605.78;5096253;28;20036;-73
2022/07/20 01:44:03;;;;;;;9.27;3.30;;;;;;;21.51;51.95;100603.22;5096094;28;20371;-73
2022/07/20 01:46:31;;;;;;;7.55;3.40;;;;;;;21.51;51.88;100607.81;5096254;28;20046;-73
2022/07/20 01:49:00;;;;;;;8.70;3.40;;;;;;;21.61;51.49;100606.72;5096129;28;20464;-73
2022/07/20 01:51:28;;;;;;;11.57;4.00;;;;;;;21.51;52.26;100605.94;5096133;28;20042;-72
2022/07/20 01:53:56;;;;;;;9.50;3.53;;;;;;;21.33;53.11;100610.53;5077565;28;20072;-73
2022/07/20 01:56:26;;;;;;;8.95;3.53;;;;;;;21.22;53.41;100607.97;5095867;28;20047;-73
2022/07/20 01:58:54;;;;;;;11.73;3.30;;;;;;;21.14;53.56;100612.31;5095839;28;20121;-72
2022/07/20 02:01:22;;;;;;;9.07;3.65;;;;;;;21.17;53.41;100610.28;5096089;28;20036;-72
2022/07/20 02:03:51;;;;;;;11.48;3.33;;;;;;;21.26;51.92;100612.09;5095669;28;20093;-71
2022/07/20 02:06:19;;;;;;;8.50;3.40;;;;;;;21.03;52.51;100609.78;5077510;28;20047;-74
2022/07/20 02:08:47;;;;;;;7.70;3.50;;;;;;;21.11;52.94;100615.31;5095414;28;20381;-78
2022/07/20 02:11:17;;;;;;;9.98;3.63;;;;;;;20.92;53.82;100615.41;5095547;28;20047;-75
2022/07/20 02:13:46;;;;;;;10.00;3.40;;;;;;;20.93;54.42;100617.13;5095780;28;20070;-75
2022/07/20 02:16:17;;;;;;;8.85;3.45;;;;;;;20.76;54.01;100615.22;5095674;28;20469;-75
2022/07/20 02:18:48;;;;;;;11.48;3.58;;;;;;;20.70;53.68;100613.09;5095376;28;20036;-73
2022/07/20 02:21:19;;;;;;;12.45;4.43;;;;;;;20.64;55.35;100608.25;5095661;28;20069;-72
2022/07/20 02:23:48;;;;;;;10.65;3.97;;;;;;;20.58;54.98;100605.16;5095853;28;20471;-74
2022/07/20 02:26:16;;;;;;;6.78;3.10;;;;;;;20.52;55.00;100608.44;5095271;28;20062;-72
2022/07/20 02:28:46;;;;;;;9.10;3.80;;;;;;;20.51;55.35;100617.56;5095192;28;20050;-73
2022/07/20 02:31:18;;;;;;;7.15;3.63;;;;;;;20.40;56.09;100617.72;5095107;28;20101;-72
2022/07/20 02:33:47;;;;;;;9.65;3.22;;;;;;;20.35;56.44;100617.28;5095098;28;20042;-72
2022/07/20 02:36:15;;;;;;;8.00;3.35;;;;;;;20.34;57.25;100612.03;5077212;28;20362;-73
2022/07/20 02:38:43;;;;;;;7.88;3.40;;;;;;;20.34;57.33;100614.72;5095351;28;20117;-71
2022/07/20 02:41:12;;;;;;;8.85;3.65;;;;;;;20.30;56.74;100614.19;5094846;28;20040;-71
2022/07/20 02:43:40;;;;;;;9.75;4.00;;;;;;;20.33;56.88;100622.00;5095083;28;20036;-71
2022/07/20 02:46:10;;;;;;;10.20;4.13;;;;;;;20.26;57.54;100615.44;5094728;28;20050;-71
2022/07/20 02:48:38;;;;;;;10.20;3.83;;;;;;;20.26;57.14;100613.59;5095033;28;20050;-71
2022/07/20 02:51:07;;;;;;;9.82;3.67;;;;;;;20.46;56.94;100621.72;5094843;28;20036;-71
2022/07/20 02:53:35;;;;;;;9.18;4.25;;;;;;;20.63;55.92;100614.69;5095314;28;20381;-71
2022/07/20 02:56:03;;;;;;;8.60;3.65;;;;;;;20.66;56.03;100617.13;5094660;28;20458;-71
2022/07/20 02:58:31;;;;;;;10.35;4.28;;;;;;;20.64;55.84;100617.22;5094596;28;20080;-72
2022/07/20 03:00:59;;;;;;;10.40;3.45;;;;;;;20.75;55.92;100621.59;5094275;28;20557;-71
2022/07/20 03:03:29;;;;;;;9.23;3.90;;;;;;;20.75;56.10;100616.19;5076657;28;20072;-71
2022/07/20 03:05:58;;;;;;;10.02;3.70;;;;;;;20.75;56.14;100618.91;5094288;28;20059;-79
2022/07/20 03:08:27;;;;;;;7.97;3.75;;;;;;;20.73;56.18;100618.19;5076838;28;20090;-79
2022/07/20 03:10:55;;;;;;;11.25;3.88;;;;;;;20.61;56.89;100622.97;5094602;28;20040;-76
2022/07/20 03:13:23;;;;;;;10.15;3.58;;;;;;;20.76;55.88;100613.34;5094869;28;20089;-74
2022/07/20 03:15:51;;;;;;;7.85;3.72;;;;;;;20.69;56.36;100619.50;5094611;28;20038;-80
2022/07/20 03:18:19;;;;;;;9.65;3.70;;;;;;;20.54;57.07;100625.41;5094532;28;20035;-76
2022/07/20 03:20:49;;;;;;;6.88;3.65;;;;;;;20.44;57.83;100635.41;5094449;28;20429;-75
2022/07/20 03:23:17;;;;;;;11.07;3.95;;;;;;;20.55;57.28;100629.81;5094261;28;20127;-75
2022/07/20 03:25:45;;;;;;;12.10;3.83;;;;;;;20.52;57.56;100629.25;5094167;28;20124;-73
2022/07/20 03:28:14;;;;;;;12.35;3.63;;;;;;;20.54;57.51;100630.81;5093873;28;20035;-73
2022/07/20 03:30:42;;;;;;;9.77;3.97;;;;;;;20.65;57.43;100628.94;5094298;28;20067;-73
2022/07/20 03:33:10;;;;;;;8.98;3.75;;;;;;;20.73;57.72;100637.19;5094161;28;20036;-76
2022/07/20 03:35:38;;;;;;;7.32;3.60;;;;;;;20.47;57.96;100648.69;5094272;28;20032;-76
2022/07/20 03:38:08;;;;;;;11.45;4.55;;;;;;;20.67;57.89;100640.50;5075541;28;20077;-76
2022/07/20 03:40:37;;;;;;;9.32;3.88;;;;;;;20.56;58.56;100636.13;5094189;28;20042;-75
2022/07/20 03:43:05;;;;;;;8.35;4.45;;;;;;;20.55;58.30;100651.50;5093468;28;20408;-75
2022/07/20 03:45:33;;;;;;;11.13;4.35;;;;;;;20.61;57.79;100654.63;5094035;28;20072;-75
2022/07/20 03:48:01;;;;;;;8.43;4.25;;;;;;;20.62;57.87;100653.63;5075390;28;20097;-75
2022/07/20 03:50:29;;;;;;;9.63;4.00;;;;;;;20.96;56.60;100649.38;5093605;28;20036;-75
2022/07/20 03:52:58;;;;;;;9.75;3.67;;;;;;;21.25;55.44;100659.22;5093561;28;20050;-73
2022/07/20 03:55:27;;;;;;;9.38;4.00;;;;;;;22.12;52.67;100647.78;5075583;28;20067;-73
2022/07/20 03:57:55;;;;;;;12.38;4.05;;;;;;;22.27;51.96;100660.63;5093377;28;20036;-74
2022/07/20 04:00:23;;;;;;;10.15;4.05;;;;;;;22.80;50.31;100661.50;5093607;28;20051;-73
2022/07/20 04:02:51;;;;;;;10.25;3.80;;;;;;;23.17;49.19;100660.38;5093661;28;20035;-72
2022/07/20 04:05:20;;;;;;;9.27;3.60;;;;;;;23.74;47.81;100655.97;5093483;28;20553;-73
2022/07/20 04:07:48;;;;;;;12.75;4.20;;;;;;;23.98;46.26;100660.59;5093584;28;20120;-71
2022/07/20 04:10:17;;;;;;;9.60;3.80;;;;;;;24.42;44.54;100663.88;5075141;28;20051;-73
2022/07/20 04:12:52;;;;;;;6.20;3.75;;;;;;;24.98;42.63;100653.81;5093622;28;20472;-75
2022/07/20 04:15:21;;;;;;;12.57;4.35;;;;;;;25.29;42.33;100651.19;5093325;28;20040;-73
2022/07/20 04:17:53;;;;;;;11.88;3.67;;;;;;;25.72;41.02;100653.53;5093239;28;20048;-73
2022/07/20 04:20:21;;;;;;;9.27;3.80;;;;;;;25.33;41.91;100657.13;5093472;28;20039;-74
2022/07/20 04:22:50;;;;;;;9.95;3.85;;;;;;;26.27;39.27;100660.63;5093174;28;20043;-74
2022/07/20 04:25:19;;;;;;;7.72;3.55;;;;;;;26.01;40.36;100655.53;5093184;28;20032;-73
2022/07/20 04:27:47;;;;;;;7.75;3.80;;;;;;;26.70;39.07;100665.34;5093520;28;20040;-73
2022/07/20 04:30:17;;;;;;;8.57;3.40;;;;;;;26.78;38.83;100661.69;5092890;28;20484;-74
2022/07/20 04:32:45;;;;;;;7.13;3.33;;;;;;;26.72;38.62;100660.53;5093331;28;20047;-73
2022/07/20 04:35:14;;;;;;;8.27;3.28;;;;;;;26.98;37.51;100659.25;5093091;28;20048;-73
2022/07/20 04:37:42;;;;;;;8.65;3.55;;;;;;;27.42;36.33;100661.13;5093238;28;20068;-73
2022/07/20 04:40:11;;;;;;;6.85;2.92;;;;;;;28.01;35.77;100653.59;5092721;28;20050;-73
2022/07/20 04:42:39;;;;;;;5.70;3.00;;;;;;;28.06;34.90;100653.00;5093039;28;20044;-74
2022/07/20 04:45:08;;;;;;;7.97;2.95;;;;;;;28.29;34.64;100663.78;5092754;28;20085;-74
2022/07/20 04:47:38;;;;;;;6.55;2.47;;;;;;;28.49;33.60;100654.69;5093026;28;20040;-76
2022/07/20 04:50:08;;;;;;;6.53;2.53;;;;;;;28.60;34.17;100661.50;5092667;28;20032;-77
2022/07/20 04:52:36;;;;;;;9.00;2.80;;;;;;;28.05;35.23;100659.53;5094217;28;20362;-72
2022/07/20 04:55:05;;;;;;;7.50;2.70;;;;;;;28.33;34.44;100665.09;5096923;28;20040;-71
2022/07/20 04:57:34;;;;;;;5.97;2.55;;;;;;;28.80;34.43;100664.38;5097169;28;20047;-70
2022/07/20 05:00:02;;;;;;;6.15;2.58;;;;;;;28.81;34.58;100663.34;5096832;28;20032;-69
2022/07/20 05:02:31;;;;;;;9.20;2.60;;;;;;;29.26;33.67;100669.34;5097134;28;20062;-68
2022/07/20 05:05:01;;;;;;;8.75;2.65;;;;;;;29.10;33.16;100672.41;5096763;28;20490;-69
2022/07/20 05:07:29;;;;;;;10.88;2.80;;;;;;;29.10;33.48;100673.25;5096932;28;20070;-68
2022/07/20 05:09:57;;;;;;;7.03;2.58;;;;;;;29.15;33.38;100667.16;5096732;28;20040;-69
2022/07/20 05:12:25;;;;;;;8.50;2.72;;;;;;;28.98;33.85;100670.25;5096915;28;20040;-68
2022/07/20 05:14:53;;;;;;;6.57;2.80;;;;;;;29.55;33.06;100666.31;5096908;28;20441;-68
2022/07/20 05:17:21;;;;;;;8.50;2.53;;;;;;;29.98;32.25;100663.25;5096223;28;20477;-68
2022/07/20 05:19:49;;;;;;;8.82;2.92;;;;;;;30.04;31.94;100664.31;5096361;28;20094;-70
2022/07/20 05:22:19;;;;;;;13.63;3.03;;;;;;;30.42;31.04;100667.34;5101142;28;20460;-69
2022/07/20 05:24:47;;;;;;;8.52;2.92;;;;;;;29.11;33.04;100674.09;5098565;28;20437;-69
2022/07/20 05:27:15;;;;;;;7.07;3.00;;;;;;;29.47;32.69;100663.72;5098079;28;20472;-69
2022/07/20 05:29:43;;;;;;;7.13;2.92;;;;;;;30.02;31.63;100667.28;5116254;28;20052;-67
2022/07/20 05:32:11;;;;;;;7.25;2.70;;;;;;;30.38;30.77;100671.56;5116495;28;20035;-68
2022/07/20 05:34:40;;;;;;;7.45;3.00;;;;;;;30.45;30.43;100673.25;5116685;28;20046;-68
2022/07/20 05:37:08;;;;;;;7.63;2.63;;;;;;;30.95;29.89;100675.56;5116556;28;20036;-69
2022/07/20 05:39:38;;;;;;;9.07;2.83;;;;;;;30.65;29.94;100673.28;5116875;28;20369;-68
2022/07/20 05:42:06;;;;;;;7.18;2.90;;;;;;;30.63;29.71;100675.38;5097866;28;20114;-68
2022/07/20 05:44:34;;;;;;;8.93;2.95;;;;;;;30.61;30.43;100680.25;5116790;28;20050;-67
2022/07/20 05:47:03;;;;;;;8.43;2.92;;;;;;;30.98;29.16;100689.75;5097856;28;20039;-67
2022/07/20 05:49:31;;;;;;;11.38;2.72;;;;;;;31.57;28.66;100682.38;5116617;28;20078;-68
2022/07/20 05:51:59;;;;;;;9.82;3.00;;;;;;;31.41;29.55;100677.34;5116614;28;20430;-67
2022/07/20 05:54:27;;;;;;;11.55;2.97;;;;;;;32.31;27.97;100678.97;5097998;28;20039;-67
2022/07/20 05:56:57;;;;;;;8.07;3.30;;;;;;;31.93;28.89;100686.44;5097908;28;20046;-67
2022/07/20 05:59:25;;;;;;;10.98;3.00;;;;;;;32.11;28.77;100681.84;5097723;28;20068;-68
2022/07/20 06:01:53;;;;;;;8.32;2.53;;;;;;;32.14;28.93;100680.59;5108944;28;20047;-68
2022/07/20 06:04:22;;;;;;;7.47;2.92;;;;;;;32.26;28.58;100684.31;5114444;28;20202;-68
2022/07/20 06:06:50;;;;;;;9.27;2.63;;;;;;;32.37;28.21;100680.84;5096305;28;20126;-68
2022/07/20 06:09:18;;;;;;;7.40;2.42;;;;;;;32.87;28.70;100683.59;5115280;28;20088;-68
2022/07/20 06:11:49;;;;;;;12.18;2.92;;;;;;;33.26;27.80;100690.59;5115465;28;20044;-68
2022/07/20 06:14:20;;;;;;;8.35;2.60;;;;;;;33.48;26.62;100690.16;5115271;28;20044;-68
2022/07/20 06:16:48;;;;;;;8.77;2.88;;;;;;;33.52;26.63;100683.94;5115964;28;20040;-68
2022/07/20 06:19:16;;;;;;;11.73;2.85;;;;;;;33.29;26.40;100686.53;5115810;28;20113;-68
2022/07/20 06:21:44;;;;;;;8.57;2.70;;;;;;;33.13;27.01;100698.22;5115531;28;20044;-66
2022/07/20 06:24:14;;;;;;;7.82;2.75;;;;;;;33.36;27.04;100698.38;5115384;28;20048;-67
2022/07/20 06:26:45;;;;;;;9.38;2.67;;;;;;;33.88;25.87;100693.28;5115546;28;20110;-68
2022/07/20 06:29:14;;;;;;;10.52;2.60;;;;;;;33.45;26.22;100691.47;5097206;28;20047;-68
2022/07/20 06:31:43;;;;;;;8.68;2.63;;;;;;;34.61;24.01;100697.69;5115666;28;20469;-68
2022/07/20 06:34:32;;;;;;;8.32;2.45;;;;;;;34.36;24.98;100687.63;5115839;28;20042;-67
2022/07/20 06:37:00;;;;;;;8.45;2.50;;;;;;;34.34;24.75;100686.16;5115468;28;20052;-68
2022/07/20 06:39:28;;;;;;;8.18;2.67;;;;;;;34.57;24.45;100685.41;5115368;28;20039;-66
2022/07/20 06:41:56;;;;;;;7.55;2.63;;;;;;;34.20;24.66;100693.00;5115452;28;20040;-68
2022/07/20 06:44:24;;;;;;;7.43;2.70;;;;;;;33.92;25.24;100680.66;5115266;28;20405;-68
2022/07/20 06:46:54;;;;;;;7.53;2.58;;;;;;;33.99;25.22;100677.78;5115423;28;20090;-68
2022/07/20 06:49:26;;;;;;;8.35;2.63;;;;;;;34.11;25.24;100678.66;5115302;28;20044;-68
2022/07/20 06:51:54;;;;;;;7.60;2.90;;;;;;;34.88;24.88;100678.66;5115359;28;20048;-68
2022/07/20 06:54:23;;;;;;;9.90;2.90;;;;;;;35.41;22.51;100683.19;5115014;28;20075;-68
2022/07/20 06:56:51;;;;;;;9.80;2.47;;;;;;;35.23;23.00;100679.50;5115100;28;20045;-66
2022/07/20 06:59:20;;;;;;;8.40;2.50;;;;;;;35.20;22.64;100681.88;5115063;28;20043;-68
2022/07/20 07:01:48;;;;;;;11.27;2.45;;;;;;;35.11;23.74;100678.66;5115064;28;20043;-68
2022/07/20 07:04:18;;;;;;;13.77;2.70;;;;;;;33.96;24.49;100668.03;5114705;28;20515;-67
2022/07/20 07:06:47;;;;;;;9.98;2.60;;;;;;;33.79;25.13;100669.75;5115257;28;20415;-67
2022/07/20 07:09:15;;;;;;;8.82;2.60;;;;;;;33.43;24.63;100670.66;5114562;28;20541;-68
2022/07/20 07:11:43;;;;;;;8.30;2.15;;;;;;;32.64;25.19;100661.28;5114910;28;20046;-68
2022/07/20 07:14:11;;;;;;;7.70;2.45;;;;;;;32.08;25.91;100665.75;5096061;28;20051;-68
2022/07/20 07:16:40;;;;;;;10.80;2.28;;;;;;;31.94;26.24;100660.53;5114382;28;20066;-67
2022/07/20 07:19:08;;;;;;;7.43;2.60;;;;;;;32.27;25.60;100666.66;5095799;28;20561;-68
2022/07/20 07:21:38;;;;;;;9.03;2.40;;;;;;;32.17;25.75;100667.16;5114674;28;20092;-68
2022/07/20 07:24:06;;;;;;;7.95;2.50;;;;;;;31.78;25.85;100670.19;5092803;28;20109;-78
2022/07/20 07:26:34;;;;;;;4.97;2.38;;;;;;;31.63;26.63;100676.81;5093079;28;20425;-67
2022/07/20 07:29:03;;;;;;;8.38;2.40;;;;;;;31.45;26.96;100673.06;5093923;28;20044;-67
2022/07/20 07:31:32;;;;;;;5.93;2.20;;;;;;;31.15;26.08;100670.81;5092559;28;20489;-68
2022/07/20 07:34:01;;;;;;;7.72;2.10;;;;;;;31.14;26.76;100674.66;5092858;28;20044;-67
2022/07/20 07:36:29;;;;;;;7.40;2.42;;;;;;;31.19;26.79;100671.25;5093925;28;20040;-67
2022/07/20 07:38:59;;;;;;;6.15;2.17;;;;;;;31.40;26.03;100670.16;5094156;28;20074;-67
2022/07/20 07:41:27;;;;;;;7.43;2.15;;;;;;;31.15;27.58;100665.31;5093616;28;20048;-68
2022/07/20 07:43:55;;;;;;;5.13;2.17;;;;;;;30.81;26.45;100666.47;5093711;28;20048;-68
2022/07/20 07:46:23;;;;;;;8.13;2.20;;;;;;;30.88;27.58;100655.44;5092070;28;20489;-67
2022/07/20 07:48:52;;;;;;;6.10;2.13;;;;;;;31.14;26.79;100663.63;5093930;28;20453;-67
2022/07/20 07:51:21;;;;;;;9.55;2.00;;;;;;;31.11;26.51;100664.06;5092293;28;20050;-67
2022/07/20 07:53:50;;;;;;;7.05;2.25;;;;;;;31.13;26.60;100656.44;5092496;28;20417;-67
2022/07/20 07:56:19;;;;;;;5.93;1.90;;;;;;;30.99;26.89;100655.63;5093286;28;20043;-68
2022/07/20 07:58:48;;;;;;;5.68;2.30;;;;;;;31.22;26.15;100654.31;5092390;28;20048;-67
2022/07/20 08:01:36;;;;;;;4.57;1.90;;;;;;;31.29;26.07;100658.75;5094076;28;20049;-68
2022/07/20 08:04:05;;;;;;;7.75;2.28;;;;;;;31.30;26.42;100652.16;5093428;28;20473;-67
2022/07/20 08:06:34;;;;;;;5.70;2.03;;;;;;;31.44;25.84;100654.84;5093116;28;20070;-67
2022/07/20 08:09:02;;;;;;;6.85;2.25;;;;;;;31.42;25.72;100657.84;5091965;28;20383;-67
2022/07/20 08:11:32;;;;;;;6.43;2.20;;;;;;;31.35;25.90;100651.50;5091684;28;20078;-67
2022/07/20 08:14:02;;;;;;;5.47;2.08;;;;;;;31.44;25.65;100646.59;5093397;28;20062;-67
2022/07/20 08:16:32;;;;;;;8.32;2.28;;;;;;;31.29;25.88;100647.72;5093194;28;20050;-68
2022/07/20 08:19:01;;;;;;;7.55;2.10;;;;;;;31.18;26.70;100655.78;5093547;28;20101;-67
2022/07/20 08:21:29;;;;;;;7.88;2.00;;;;;;;31.45;26.41;100645.50;5092965;28;20040;-68
2022/07/20 08:24:02;;;;;;;7.43;2.40;;;;;;;31.56;26.33;100642.09;5110779;28;20136;-67
2022/07/20 08:26:33;;;;;;;7.15;2.20;;;;;;;31.34;26.51;100652.56;5113453;28;20069;-67
2022/07/20 08:29:02;;;;;;;3.75;2.00;;;;;;;31.18;25.90;100645.63;5113293;28;20039;-67
2022/07/20 08:31:36;;;;;;;6.68;2.05;;;;;;;31.29;25.79;100650.47;5113540;28;20067;-67
2022/07/20 08:34:05;;;;;;;6.72;2.30;;;;;;;31.10;25.91;100659.63;5113251;28;20118;-67
2022/07/20 08:36:33;;;;;;;8.95;2.17;;;;;;;31.24;26.39;100644.75;5113106;28;20035;-67
2022/07/20 08:39:02;;;;;;;6.05;1.83;;;;;;;31.26;25.82;100648.13;5095047;28;20048;-67
2022/07/20 08:41:33;;;;;;;3.72;2.10;;;;;;;31.45;25.16;100640.84;5113328;28;20065;-67
2022/07/20 08:44:02;;;;;;;7.28;2.10;;;;;;;31.26;25.39;100642.63;5113261;28;20040;-68
2022/07/20 08:46:33;;;;;;;8.70;2.00;;;;;;;31.60;24.88;100644.16;5112773;28;20054;-68
2022/07/20 08:49:03;;;;;;;8.37;2.40;;;;;;;31.51;25.02;100637.22;5095148;28;20074;-67
2022/07/20 08:51:31;;;;;;;5.70;1.98;;;;;;;31.47;25.40;100646.16;5094647;28;20044;-68
2022/07/20 08:54:00;;;;;;;8.85;2.08;;;;;;;31.63;25.16;100642.88;5113132;28;20044;-67
2022/07/20 08:56:28;;;;;;;4.55;1.98;;;;;;;31.77;25.59;100632.66;5112864;28;20036;-67
2022/07/20 08:58:58;;;;;;;4.82;2.13;;;;;;;31.91;24.49;100634.25;5094789;28;20051;-68
2022/07/20 09:01:26;;;;;;;8.30;2.17;;;;;;;31.66;25.47;100631.44;5113181;28;20127;-67
2022/07/20 09:04:09;;;;;;;3.83;1.85;;;;;;;31.75;25.32;100632.88;5113218;28;20031;-67
2022/07/20 09:06:47;;;;;;;8.23;2.38;;;;;;;31.99;25.20;100627.63;5113286;28;20044;-67
2022/07/20 09:09:16;;;;;;;4.78;2.08;;;;;;;31.96;25.14;100628.09;5094456;28;20059;-68
2022/07/20 09:11:45;;;;;;;4.88;1.95;;;;;;;32.15;24.85;100624.31;5113355;28;20040;-67
2022/07/20 09:14:36;;;;;;;5.80;2.00;;;;;;;32.30;25.05;100622.09;5094518;28;20492;-68
2022/07/20 09:17:15;;;;;;;9.38;1.95;;;;;;;32.14;24.63;100619.88;5113254;28;20067;-67
2022/07/20 09:19:57;;;;;;;9.05;2.25;;;;;;;32.26;24.27;100619.97;5113514;28;20036;-68
2022/07/20 09:22:30;;;;;;;5.13;2.10;;;;;;;32.30;24.11;100624.00;5112748;28;20079;-68
2022/07/20 09:25:08;;;;;;;6.65;2.30;;;;;;;32.20;24.51;100627.22;5112800;28;20039;-67
2022/07/20 09:27:38;;;;;;;7.90;2.30;;;;;;;32.26;24.96;100612.53;5112770;28;20039;-68
2022/07/20 09:30:10;;;;;;;9.13;2.47;;;;;;;32.20;24.57;100618.97;5094493;28;20520;-68
2022/07/20 09:32:57;;;;;;;6.80;2.22;;;;;;;32.28;24.51;100613.16;5094346;28;20043;-67
2022/07/20 09:35:27;;;;;;;7.90;2.10;;;;;;;32.19;24.10;100603.47;5112915;28;20063;-67
2022/07/20 09:38:00;;;;;;;7.22;2.00;;;;;;;32.25;24.96;100605.34;5112784;28;20473;-67
2022/07/20 09:40:28;;;;;;;5.97;2.10;;;;;;;32.50;24.43;100607.25;5096470;28;20047;-67
2022/07/20 09:42:57;;;;;;;5.20;1.95;;;;;;;32.37;24.55;100611.84;5116389;28;20043;-67
2022/07/20 09:45:28;;;;;;;9.18;2.38;;;;;;;32.38;24.38;100612.69;5098062;28;20046;-67
2022/07/20 09:48:13;;;;;;;6.88;2.38;;;;;;;32.37;24.57;100606.31;5098258;28;20047;-68
2022/07/20 09:50:43;;;;;;;5.22;2.17;;;;;;;32.40;23.78;100603.09;5098229;28;20051;-68
2022/07/20 09:53:14;;;;;;;4.47;2.53;;;;;;;32.39;23.87;100598.66;5116404;28;20050;-67
2022/07/20 09:55:43;;;;;;;4.72;2.15;;;;;;;32.43;24.03;100593.53;5116340;28;20074;-67
2022/07/20 09:58:12;;;;;;;7.70;2.67;;;;;;;32.39;24.49;100590.38;5116431;28;20036;-67
2022/07/20 10:00:41;;;;;;;7.38;2.20;;;;;;;32.63;24.46;100587.81;5097764;28;20135;-67
2022/07/20 10:03:15;;;;;;;7.30;2.25;;;;;;;32.51;24.17;100584.94;5097622;28;20481;-67
2022/07/20 10:05:44;;;;;;;6.68;2.10;;;;;;;32.72;23.50;100586.44;5116009;28;20066;-67
2022/07/20 10:08:13;;;;;;;6.18;2.25;;;;;;;32.76;23.68;100584.88;5097739;28;20093;-67
2022/07/20 10:10:42;;;;;;;6.90;2.20;;;;;;;32.93;24.06;100588.75;5116186;28;20557;-68
2022/07/20 10:13:10;;;;;;;9.63;2.70;;;;;;;33.05;24.05;100586.06;5097688;28;20050;-67
2022/07/20 10:15:46;;;;;;;5.35;1.90;;;;;;;33.01;23.55;100582.94;5115730;28;20035;-68
2022/07/20 10:18:15;;;;;;;4.82;2.15;;;;;;;33.10;24.06;100577.91;5097404;28;20050;-68
2022/07/20 10:20:49;;;;;;;8.90;2.40;;;;;;;33.23;23.53;100574.16;5116038;28;20044;-67
2022/07/20 10:23:32;;;;;;;5.90;2.25;;;;;;;33.41;23.23;100573.28;5115228;28;20068;-79
2022/07/20 10:26:01;;;;;;;6.28;2.42;;;;;;;33.51;23.01;100579.09;5097495;28;20048;-67
2022/07/20 10:28:36;;;;;;;6.47;2.70;;;;;;;33.48;22.99;100574.88;5097269;28;20080;-68
2022/07/20 10:31:16;;;;;;;10.50;2.55;;;;;;;33.54;23.22;100567.56;5115873;28;20051;-67
2022/07/20 10:33:44;;;;;;;5.10;2.03;;;;;;;33.65;22.57;100563.13;5115620;28;20118;-67
2022/07/20 10:39:43;;;;;;;6.25;2.58;;;;;;;33.69;22.44;100558.84;5115780;28;20063;-68
2022/07/20 10:42:28;;;;;;;6.40;2.25;;;;;;;33.72;22.54;100553.66;5097342;28;20053;-67
2022/07/20 10:45:32;;;;;;;5.00;2.38;;;;;;;33.78;21.93;100552.72;5115148;28;20545;-67
2022/07/20 10:48:20;;;;;;;7.35;2.72;;;;;;;33.82;22.41;100553.94;5097135;28;20048;-67
2022/07/20 10:50:50;;;;;;;7.25;2.55;;;;;;;33.82;21.88;100550.31;5114653;28;20055;-67
2022/07/20 10:53:46;;;;;;;5.97;2.25;;;;;;;33.93;21.86;100554.22;5096909;28;20463;-78
2022/07/20 10:56:14;;;;;;;4.32;2.15;;;;;;;33.77;21.64;100544.63;5115450;28;20074;-67
2022/07/20 10:58:44;;;;;;;4.63;2.22;;;;;;;33.26;22.75;100551.56;5115051;28;20044;-67
2022/07/20 11:01:13;;;;;;;7.70;2.40;;;;;;;33.15;22.50;100544.06;5096704;28;20054;-67
2022/07/20 11:03:45;;;;;;;4.80;2.33;;;;;;;33.33;22.42;100538.50;5096671;28;20048;-67
2022/07/20 11:06:18;;;;;;;6.60;2.42;;;;;;;33.47;22.56;100530.88;5114839;28;20101;-67
2022/07/20 11:08:51;;;;;;;6.53;2.25;;;;;;;33.67;22.75;100527.78;5115009;28;20067;-67
2022/07/20 11:11:21;;;;;;;5.75;2.25;;;;;;;33.67;22.54;100525.03;5096604;28;20055;-79
2022/07/20 11:13:50;;;;;;;6.85;2.35;;;;;;;33.62;22.86;100519.38;5096672;28;20070;-67
2022/07/20 11:16:20;;;;;;;7.65;2.47;;;;;;;33.95;21.84;100516.91;5096567;28;20131;-67
2022/07/20 11:18:51;;;;;;;9.63;2.60;;;;;;;34.05;21.71;100513.56;5114728;28;20130;-67
2022/07/20 11:21:29;;;;;;;4.82;2.30;;;;;;;34.02;21.81;100520.41;5114765;28;20044;-78
2022/07/20 11:24:04;;;;;;;5.03;2.25;;;;;;;34.12;21.49;100509.59;5096080;28;20485;-67
2022/07/20 11:26:32;;;;;;;5.32;2.55;;;;;;;34.13;22.03;100511.28;5096013;28;20050;-67
2022/07/20 11:29:03;;;;;;;8.27;2.38;;;;;;;34.17;22.10;100508.03;5096026;28;20127;-67
2022/07/20 11:31:31;;;;;;;8.95;2.28;;;;;;;34.20;21.65;100510.31;5114197;28;20040;-67
2022/07/20 11:34:01;;;;;;;8.38;2.35;;;;;;;34.17;21.28;100510.81;5096171;28;20048;-67
2022/07/20 11:36:31;;;;;;;6.03;2.35;;;;;;;34.25;21.83;100511.25;5095739;28;20097;-67
2022/07/20 11:39:02;;;;;;;4.70;2.10;;;;;;;34.32;21.82;100502.84;5096019;28;20130;-67
2022/07/20 11:41:34;;;;;;;9.55;2.53;;;;;;;34.26;21.45;100499.13;5095550;28;20086;-67
2022/07/20 11:44:04;;;;;;;4.40;1.80;;;;;;;34.13;20.88;100491.06;5114357;28;20556;-67